Decoded Metar for YSRI (RICHMOND in AUSTRALIA) (IATA:RCM) | Meteo·Mobile Aviation Weather
aviador You're here:

YSRI Decoded Metar

RICHMOND in AUSTRALIA
Report Time2018-10-22 23:00:00
UTC Time2018-10-22 23:38:30
Flight Rules vfr VFR
Wind030° at 05 kt
W.Decomp.*RWY 10: 0.7 kt HW 5 kt LCW
W.Rank030° ranks 8
Current wind is below 030° avg. (5.0)
Visibility9999 m
Phenomena:N/A
Clouds:N/A
Expected CloudBase > 2,000 ft AGL from Temp-Dew spread
CeilingNone
Temp22°C (ISA +7)
Dew Point17°C (73% RH)
QNH1015 hPa
Density Alt1,089 ft
Elevation69 ft
Report Wrong Elevation
Raw Report
YSRI 222300Z AUTO 03005KT 9999 // NCD 22/17 Q1015=

Extra information for YSRI:More info

Metar Taf Metar & Taf Last 4 Metars F.Rules Stats Wind Profile Meteogram Temp Stats Airport Information Weather charts Add Link Nearby VenuesMetar ALERT Operation Metar Decoded Social comments